MCX4510 KMIA-KDAB
Flight info
| Callsign | MCX4510 |
|---|---|
| Flight time | 0h 48m |
| Altitude | 21000 |
| Route | FLMGO2 WAPOM VALKA T208 SMYRA |
| Aircraft | CRJ7/M-SDFGIRWY/S |
Departure
| Time | 2026-04-26 16:10 |
|---|---|
| Airport | Miami International Airport (KMIA) |
Arrival
| Time | 2026-04-26 16:58 |
|---|---|
| Airport | Daytona Beach International Airport (KDAB) |
| Time | Latitude | Longitude | Altitude | Speed | Heading |
|---|---|---|---|---|---|
| 2026-04-26 15:22 | 25.79732 | -80.28708 | 13 ft | 0 kts | 139° |
| 2026-04-26 16:02 | 25.79738 | -80.28713 | 22 ft | 4 kts | 147° |
| 2026-04-26 16:02 | 25.79751 | -80.28717 | 22 ft | 4 kts | 195° |
| 2026-04-26 16:03 | 25.79763 | -80.28694 | 13 ft | 1 kts | 264° |
| 2026-04-26 16:03 | 25.79763 | -80.28689 | 13 ft | 0 kts | 264° |
| 2026-04-26 16:04 | 25.79764 | -80.28689 | 13 ft | 0 kts | 264° |
| 2026-04-26 16:04 | 25.79763 | -80.28690 | 13 ft | 1 kts | 264° |
| 2026-04-26 16:05 | 25.79762 | -80.28710 | 13 ft | 4 kts | 264° |
| 2026-04-26 16:05 | 25.79758 | -80.28748 | 13 ft | 6 kts | 264° |
| 2026-04-26 16:05 | 25.79774 | -80.28802 | 13 ft | 9 kts | 318° |
| 2026-04-26 16:05 | 25.79845 | -80.28822 | 13 ft | 12 kts | 358° |
| 2026-04-26 16:06 | 25.79932 | -80.28826 | 14 ft | 13 kts | 356° |
| 2026-04-26 16:06 | 25.80007 | -80.28861 | 14 ft | 12 kts | 291° |
| 2026-04-26 16:06 | 25.80009 | -80.28956 | 14 ft | 13 kts | 267° |
| 2026-04-26 16:06 | 25.80004 | -80.29060 | 14 ft | 14 kts | 267° |
| 2026-04-26 16:07 | 25.80000 | -80.29169 | 14 ft | 14 kts | 267° |
| 2026-04-26 16:07 | 25.79995 | -80.29285 | 14 ft | 16 kts | 267° |
| 2026-04-26 16:07 | 25.79990 | -80.29415 | 13 ft | 18 kts | 268° |
| 2026-04-26 16:07 | 25.79984 | -80.29556 | 12 ft | 19 kts | 266° |
| 2026-04-26 16:08 | 25.79977 | -80.29698 | 13 ft | 17 kts | 266° |
| 2026-04-26 16:08 | 25.79974 | -80.29786 | 12 ft | 17 kts | 268° |
| 2026-04-26 16:08 | 25.79973 | -80.29955 | 12 ft | 17 kts | 284° |
| 2026-04-26 16:08 | 25.80005 | -80.30077 | 12 ft | 15 kts | 287° |
| 2026-04-26 16:09 | 25.80062 | -80.30106 | 12 ft | 11 kts | 55° |
| 2026-04-26 16:09 | 25.80078 | -80.29979 | 11 ft | 37 kts | 87° |
| 2026-04-26 16:09 | 25.80100 | -80.29442 | 13 ft | 100 kts | 87° |
| 2026-04-26 16:09 | 25.80138 | -80.28479 | 14 ft | 147 kts | 88° |
| 2026-04-26 16:10 | 25.80189 | -80.27308 | 364 ft | 160 kts | 90° |
| 2026-04-26 16:10 | 25.80239 | -80.26086 | 942 ft | 160 kts | 91° |
| 2026-04-26 16:10 | 25.80262 | -80.24788 | 1285 ft | 182 kts | 92° |
| 2026-04-26 16:10 | 25.80305 | -80.23270 | 1674 ft | 209 kts | 89° |
| 2026-04-26 16:11 | 25.80393 | -80.21573 | 2265 ft | 229 kts | 88° |
| 2026-04-26 16:11 | 25.80489 | -80.19744 | 2935 ft | 245 kts | 88° |
| 2026-04-26 16:11 | 25.80797 | -80.17838 | 3687 ft | 259 kts | 64° |
| 2026-04-26 16:11 | 25.82030 | -80.16399 | 4521 ft | 264 kts | 27° |
| 2026-04-26 16:12 | 25.83792 | -80.15806 | 5355 ft | 267 kts | 7° |
| 2026-04-26 16:12 | 25.85654 | -80.15658 | 6249 ft | 270 kts | 0° |
| 2026-04-26 16:12 | 25.89400 | -80.15692 | 7908 ft | 271 kts | 351° |
| 2026-04-26 16:13 | 25.91232 | -80.16159 | 8789 ft | 270 kts | 341° |
| 2026-04-26 16:13 | 25.93022 | -80.16819 | 9655 ft | 271 kts | 339° |
| 2026-04-26 16:13 | 25.94835 | -80.17521 | 10200 ft | 286 kts | 339° |
| 2026-04-26 16:13 | 25.96786 | -80.18284 | 10488 ft | 307 kts | 339° |
| 2026-04-26 16:14 | 25.98834 | -80.19161 | 10840 ft | 323 kts | 329° |
| 2026-04-26 16:14 | 26.00685 | -80.20647 | 11391 ft | 331 kts | 319° |
| 2026-04-26 16:14 | 26.04093 | -80.24142 | 12898 ft | 336 kts | 316° |
| 2026-04-26 16:15 | 26.05795 | -80.25935 | 13635 ft | 339 kts | 316° |
| 2026-04-26 16:15 | 26.07541 | -80.27712 | 14306 ft | 341 kts | 317° |
| 2026-04-26 16:15 | 26.09323 | -80.29479 | 14956 ft | 345 kts | 317° |
| 2026-04-26 16:16 | 26.12917 | -80.33048 | 16215 ft | 351 kts | 317° |
| 2026-04-26 16:16 | 26.14748 | -80.34869 | 16824 ft | 355 kts | 317° |
| 2026-04-26 16:16 | 26.16595 | -80.36707 | 17411 ft | 358 kts | 317° |
| 2026-04-26 16:16 | 26.18459 | -80.38560 | 17989 ft | 361 kts | 317° |
| 2026-04-26 16:17 | 26.20343 | -80.40438 | 18512 ft | 364 kts | 317° |
| 2026-04-26 16:17 | 26.22239 | -80.42319 | 19003 ft | 367 kts | 320° |
| 2026-04-26 16:17 | 26.24393 | -80.43865 | 19484 ft | 371 kts | 330° |
| 2026-04-26 16:17 | 26.26727 | -80.45110 | 19988 ft | 373 kts | 334° |
| 2026-04-26 16:18 | 26.29118 | -80.46277 | 20471 ft | 376 kts | 334° |
| 2026-04-26 16:18 | 26.34014 | -80.48733 | 20876 ft | 397 kts | 333° |
| 2026-04-26 16:19 | 26.39134 | -80.51455 | 20966 ft | 416 kts | 333° |
| 2026-04-26 16:19 | 26.41763 | -80.52857 | 20980 ft | 423 kts | 333° |
| 2026-04-26 16:19 | 26.46225 | -80.55228 | 20986 ft | 431 kts | 333° |
| 2026-04-26 16:20 | 26.49886 | -80.56996 | 20984 ft | 436 kts | 339° |
| 2026-04-26 16:20 | 26.55664 | -80.58824 | 20982 ft | 420 kts | 343° |
| 2026-04-26 16:20 | 26.58480 | -80.59630 | 20979 ft | 417 kts | 343° |
| 2026-04-26 16:21 | 26.61275 | -80.60489 | 20976 ft | 415 kts | 342° |
| 2026-04-26 16:21 | 26.64061 | -80.61375 | 20972 ft | 415 kts | 342° |
| 2026-04-26 16:21 | 26.65903 | -80.61961 | 20973 ft | 415 kts | 342° |
| 2026-04-26 16:21 | 26.68689 | -80.62848 | 20974 ft | 415 kts | 342° |
| 2026-04-26 16:22 | 26.71466 | -80.63729 | 20974 ft | 415 kts | 342° |
| 2026-04-26 16:22 | 26.74246 | -80.64614 | 20974 ft | 415 kts | 342° |
| 2026-04-26 16:22 | 26.77024 | -80.65501 | 20972 ft | 415 kts | 342° |
| 2026-04-26 16:22 | 26.79806 | -80.66386 | 20976 ft | 415 kts | 342° |
| 2026-04-26 16:23 | 26.82589 | -80.67276 | 20977 ft | 415 kts | 342° |
| 2026-04-26 16:23 | 26.85365 | -80.68159 | 20972 ft | 415 kts | 342° |
| 2026-04-26 16:23 | 26.88144 | -80.69046 | 20972 ft | 415 kts | 342° |
| 2026-04-26 16:23 | 26.90886 | -80.69923 | 20968 ft | 415 kts | 341° |
| 2026-04-26 16:24 | 26.93635 | -80.70909 | 20963 ft | 414 kts | 339° |
| 2026-04-26 16:24 | 26.96359 | -80.71968 | 20969 ft | 414 kts | 339° |
| 2026-04-26 16:24 | 26.99083 | -80.73012 | 20971 ft | 414 kts | 339° |
| 2026-04-26 16:24 | 27.01819 | -80.74043 | 20975 ft | 414 kts | 339° |
| 2026-04-26 16:25 | 27.04555 | -80.75075 | 20971 ft | 414 kts | 339° |
| 2026-04-26 16:25 | 27.07287 | -80.76109 | 20970 ft | 414 kts | 339° |
| 2026-04-26 16:25 | 27.10017 | -80.77139 | 20970 ft | 414 kts | 339° |
| 2026-04-26 16:25 | 27.12746 | -80.78175 | 20971 ft | 414 kts | 339° |
| 2026-04-26 16:26 | 27.15481 | -80.79211 | 20988 ft | 414 kts | 339° |
| 2026-04-26 16:26 | 27.18181 | -80.80235 | 20994 ft | 415 kts | 339° |
| 2026-04-26 16:26 | 27.20917 | -80.81273 | 20976 ft | 415 kts | 339° |
| 2026-04-26 16:26 | 27.23658 | -80.82314 | 20967 ft | 416 kts | 339° |
| 2026-04-26 16:27 | 27.26400 | -80.83354 | 20966 ft | 416 kts | 339° |
| 2026-04-26 16:27 | 27.29147 | -80.84379 | 20961 ft | 416 kts | 342° |
| 2026-04-26 16:27 | 27.32029 | -80.84677 | 20978 ft | 422 kts | 3° |
| 2026-04-26 16:27 | 27.34933 | -80.84122 | 20970 ft | 424 kts | 10° |
| 2026-04-26 16:28 | 27.37770 | -80.83165 | 20967 ft | 427 kts | 18° |
| 2026-04-26 16:28 | 27.40504 | -80.81839 | 20967 ft | 429 kts | 21° |
| 2026-04-26 16:28 | 27.43210 | -80.80426 | 20965 ft | 429 kts | 22° |
| 2026-04-26 16:28 | 27.45925 | -80.79030 | 20966 ft | 429 kts | 21° |
| 2026-04-26 16:29 | 27.48665 | -80.77709 | 20966 ft | 428 kts | 20° |
| 2026-04-26 16:29 | 27.51413 | -80.76416 | 20965 ft | 428 kts | 20° |
| 2026-04-26 16:29 | 27.54164 | -80.75107 | 20966 ft | 428 kts | 20° |
| 2026-04-26 16:29 | 27.56913 | -80.73797 | 20971 ft | 429 kts | 20° |
| 2026-04-26 16:30 | 27.59626 | -80.72503 | 20969 ft | 429 kts | 20° |
| 2026-04-26 16:30 | 27.62376 | -80.71194 | 20968 ft | 429 kts | 20° |
| 2026-04-26 16:30 | 27.65124 | -80.69882 | 20969 ft | 429 kts | 20° |
| 2026-04-26 16:30 | 27.67874 | -80.68572 | 20970 ft | 429 kts | 20° |
| 2026-04-26 16:31 | 27.70623 | -80.67256 | 20968 ft | 429 kts | 20° |
| 2026-04-26 16:31 | 27.73376 | -80.65942 | 20969 ft | 429 kts | 20° |
| 2026-04-26 16:31 | 27.76124 | -80.64628 | 20969 ft | 429 kts | 20° |
| 2026-04-26 16:31 | 27.78845 | -80.63327 | 20970 ft | 429 kts | 20° |
| 2026-04-26 16:32 | 27.81599 | -80.62008 | 20970 ft | 429 kts | 20° |
| 2026-04-26 16:32 | 27.83420 | -80.61136 | 20969 ft | 429 kts | 20° |
| 2026-04-26 16:32 | 27.87103 | -80.59373 | 20957 ft | 429 kts | 20° |
| 2026-04-26 16:32 | 27.89873 | -80.58152 | 20953 ft | 426 kts | 12° |
| 2026-04-26 16:33 | 27.92785 | -80.57901 | 20962 ft | 419 kts | 353° |
| 2026-04-26 16:33 | 27.95664 | -80.58344 | 20965 ft | 417 kts | 346° |
| 2026-04-26 16:33 | 27.98461 | -80.59194 | 20969 ft | 415 kts | 340° |
| 2026-04-26 16:33 | 28.01203 | -80.60229 | 20968 ft | 415 kts | 339° |
| 2026-04-26 16:34 | 28.03939 | -80.61277 | 20966 ft | 415 kts | 340° |
| 2026-04-26 16:34 | 28.06657 | -80.62264 | 20966 ft | 416 kts | 341° |
| 2026-04-26 16:34 | 28.09423 | -80.63233 | 20967 ft | 416 kts | 341° |
| 2026-04-26 16:34 | 28.12175 | -80.64244 | 20970 ft | 416 kts | 340° |
| 2026-04-26 16:35 | 28.14914 | -80.65313 | 20960 ft | 416 kts | 339° |
| 2026-04-26 16:35 | 28.17652 | -80.66381 | 20963 ft | 416 kts | 339° |
| 2026-04-26 16:35 | 28.20404 | -80.67456 | 20942 ft | 416 kts | 339° |
| 2026-04-26 16:35 | 28.23143 | -80.68528 | 20935 ft | 417 kts | 339° |
| 2026-04-26 16:36 | 28.25884 | -80.69599 | 20939 ft | 417 kts | 339° |
| 2026-04-26 16:36 | 28.28625 | -80.70673 | 20932 ft | 417 kts | 339° |
| 2026-04-26 16:36 | 28.31375 | -80.71751 | 20938 ft | 417 kts | 339° |
| 2026-04-26 16:36 | 28.34117 | -80.72825 | 20939 ft | 417 kts | 339° |
| 2026-04-26 16:37 | 28.36861 | -80.73901 | 20971 ft | 418 kts | 339° |
| 2026-04-26 16:37 | 28.39607 | -80.74976 | 20979 ft | 418 kts | 339° |
| 2026-04-26 16:37 | 28.42358 | -80.76050 | 20975 ft | 416 kts | 339° |
| 2026-04-26 16:37 | 28.44149 | -80.76750 | 20973 ft | 405 kts | 339° |
| 2026-04-26 16:38 | 28.47614 | -80.78142 | 20970 ft | 386 kts | 339° |
| 2026-04-26 16:38 | 28.50107 | -80.79131 | 20962 ft | 373 kts | 339° |
| 2026-04-26 16:38 | 28.52525 | -80.80088 | 20961 ft | 362 kts | 339° |
| 2026-04-26 16:38 | 28.54841 | -80.81009 | 20960 ft | 353 kts | 339° |
| 2026-04-26 16:39 | 28.57126 | -80.81921 | 20601 ft | 347 kts | 339° |
| 2026-04-26 16:39 | 28.59406 | -80.82833 | 20115 ft | 346 kts | 339° |
| 2026-04-26 16:39 | 28.61678 | -80.83741 | 19639 ft | 345 kts | 339° |
| 2026-04-26 16:39 | 28.63935 | -80.84642 | 19314 ft | 338 kts | 338° |
| 2026-04-26 16:40 | 28.66135 | -80.85521 | 18977 ft | 333 kts | 338° |
| 2026-04-26 16:40 | 28.68325 | -80.86393 | 18556 ft | 332 kts | 338° |
| 2026-04-26 16:40 | 28.70475 | -80.87263 | 18152 ft | 331 kts | 338° |
| 2026-04-26 16:40 | 28.72642 | -80.88150 | 17664 ft | 330 kts | 338° |
| 2026-04-26 16:41 | 28.74796 | -80.89032 | 17289 ft | 326 kts | 338° |
| 2026-04-26 16:41 | 28.76908 | -80.89893 | 17122 ft | 317 kts | 338° |
| 2026-04-26 16:41 | 28.78955 | -80.90714 | 17045 ft | 306 kts | 338° |
| 2026-04-26 16:41 | 28.80933 | -80.91501 | 17018 ft | 295 kts | 338° |
| 2026-04-26 16:42 | 28.82869 | -80.92257 | 17003 ft | 294 kts | 338° |
| 2026-04-26 16:42 | 28.84804 | -80.93021 | 17002 ft | 295 kts | 338° |
| 2026-04-26 16:42 | 28.86755 | -80.93788 | 17003 ft | 297 kts | 339° |
| 2026-04-26 16:42 | 28.88717 | -80.94557 | 17008 ft | 299 kts | 338° |
| 2026-04-26 16:43 | 28.90662 | -80.95328 | 17013 ft | 300 kts | 338° |
| 2026-04-26 16:43 | 28.92637 | -80.96119 | 17016 ft | 302 kts | 338° |
| 2026-04-26 16:43 | 28.94620 | -80.96918 | 17022 ft | 303 kts | 338° |
| 2026-04-26 16:43 | 28.96613 | -80.97716 | 17020 ft | 304 kts | 338° |
| 2026-04-26 16:44 | 28.98616 | -80.98525 | 17026 ft | 305 kts | 338° |
| 2026-04-26 16:44 | 29.00623 | -80.99344 | 17021 ft | 306 kts | 338° |
| 2026-04-26 16:44 | 29.02634 | -81.00169 | 17023 ft | 307 kts | 338° |
| 2026-04-26 16:44 | 29.04652 | -81.01000 | 17021 ft | 308 kts | 338° |
| 2026-04-26 16:45 | 29.06672 | -81.01832 | 17017 ft | 309 kts | 338° |
| 2026-04-26 16:45 | 29.08691 | -81.02665 | 16844 ft | 310 kts | 338° |
| 2026-04-26 16:45 | 29.10742 | -81.03513 | 16362 ft | 316 kts | 338° |
| 2026-04-26 16:45 | 29.12845 | -81.04391 | 15691 ft | 328 kts | 338° |
| 2026-04-26 16:46 | 29.15035 | -81.05315 | 15039 ft | 340 kts | 338° |
| 2026-04-26 16:46 | 29.17247 | -81.06259 | 14385 ft | 348 kts | 338° |
| 2026-04-26 16:46 | 29.19537 | -81.07247 | 13717 ft | 354 kts | 338° |
| 2026-04-26 16:46 | 29.21855 | -81.08253 | 12954 ft | 358 kts | 338° |
| 2026-04-26 16:47 | 29.24141 | -81.09242 | 12865 ft | 338 kts | 338° |
| 2026-04-26 16:47 | 29.26246 | -81.10150 | 12852 ft | 310 kts | 338° |
| 2026-04-26 16:47 | 29.28186 | -81.10980 | 12838 ft | 286 kts | 338° |
| 2026-04-26 16:47 | 29.29986 | -81.11747 | 12841 ft | 264 kts | 338° |
| 2026-04-26 16:48 | 29.31633 | -81.12441 | 12502 ft | 246 kts | 338° |
| 2026-04-26 16:48 | 29.33232 | -81.13026 | 11997 ft | 239 kts | 349° |
| 2026-04-26 16:48 | 29.34848 | -81.12666 | 11374 ft | 244 kts | 27° |
| 2026-04-26 16:48 | 29.36001 | -81.11221 | 10649 ft | 253 kts | 64° |
| 2026-04-26 16:49 | 29.36304 | -81.09234 | 9957 ft | 256 kts | 89° |
| 2026-04-26 16:49 | 29.36306 | -81.07181 | 9220 ft | 258 kts | 91° |
| 2026-04-26 16:49 | 29.36263 | -81.05122 | 8473 ft | 258 kts | 92° |
| 2026-04-26 16:49 | 29.36200 | -81.03078 | 7751 ft | 256 kts | 92° |
| 2026-04-26 16:50 | 29.36131 | -81.01039 | 7023 ft | 254 kts | 93° |
| 2026-04-26 16:50 | 29.36060 | -80.99055 | 6321 ft | 251 kts | 93° |
| 2026-04-26 16:50 | 29.35989 | -80.97065 | 5570 ft | 248 kts | 93° |
| 2026-04-26 16:50 | 29.35916 | -80.95103 | 4851 ft | 244 kts | 93° |
| 2026-04-26 16:51 | 29.35838 | -80.93166 | 4117 ft | 241 kts | 92° |
| 2026-04-26 16:51 | 29.35764 | -80.91258 | 3384 ft | 239 kts | 93° |
| 2026-04-26 16:51 | 29.35693 | -80.89367 | 2650 ft | 236 kts | 93° |
| 2026-04-26 16:51 | 29.35630 | -80.87525 | 2118 ft | 224 kts | 93° |
| 2026-04-26 16:52 | 29.35577 | -80.85798 | 1874 ft | 209 kts | 92° |
| 2026-04-26 16:52 | 29.35543 | -80.84714 | 1794 ft | 206 kts | 93° |
| 2026-04-26 16:52 | 29.35397 | -80.82475 | 1732 ft | 214 kts | 107° |
| 2026-04-26 16:52 | 29.34513 | -80.81154 | 1717 ft | 213 kts | 151° |
| 2026-04-26 16:53 | 29.33100 | -80.80887 | 1710 ft | 209 kts | 194° |
| 2026-04-26 16:53 | 29.31855 | -80.81691 | 1724 ft | 206 kts | 218° |
| 2026-04-26 16:53 | 29.30723 | -80.82678 | 1723 ft | 208 kts | 219° |
| 2026-04-26 16:53 | 29.29583 | -80.83714 | 1731 ft | 210 kts | 220° |
| 2026-04-26 16:54 | 29.28448 | -80.84773 | 1723 ft | 211 kts | 220° |
| 2026-04-26 16:54 | 29.27313 | -80.85847 | 1714 ft | 209 kts | 220° |
| 2026-04-26 16:54 | 29.26217 | -80.86900 | 1718 ft | 203 kts | 223° |
| 2026-04-26 16:54 | 29.25338 | -80.88133 | 1719 ft | 197 kts | 236° |
| 2026-04-26 16:55 | 29.24643 | -80.89447 | 1706 ft | 193 kts | 241° |
| 2026-04-26 16:55 | 29.24047 | -80.90793 | 1692 ft | 186 kts | 244° |
| 2026-04-26 16:55 | 29.23490 | -80.92167 | 1692 ft | 194 kts | 245° |
| 2026-04-26 16:55 | 29.22925 | -80.93599 | 1694 ft | 200 kts | 246° |
| 2026-04-26 16:56 | 29.21871 | -80.96296 | 1628 ft | 173 kts | 246° |
| 2026-04-26 16:56 | 29.21400 | -80.97495 | 1374 ft | 156 kts | 245° |
| 2026-04-26 16:56 | 29.20965 | -80.98594 | 1172 ft | 152 kts | 244° |
| 2026-04-26 16:57 | 29.20530 | -80.99680 | 1047 ft | 152 kts | 244° |
| 2026-04-26 16:57 | 29.20094 | -81.00772 | 883 ft | 149 kts | 245° |
| 2026-04-26 16:57 | 29.19220 | -81.02951 | 396 ft | 148 kts | 244° |
| 2026-04-26 16:58 | 29.18782 | -81.04010 | 223 ft | 144 kts | 246° |
| 2026-04-26 16:58 | 29.18510 | -81.04683 | 94 ft | 137 kts | 244° |
| 2026-04-26 16:58 | 29.17892 | -81.06188 | 41 ft | 31 kts | 243° |
| 2026-04-26 16:59 | 29.17837 | -81.06382 | 39 ft | 21 kts | 283° |
| 2026-04-26 16:59 | 29.17954 | -81.06431 | 41 ft | 12 kts | 64° |
| 2026-04-26 17:00 | 29.18029 | -81.06245 | 41 ft | 14 kts | 65° |
| 2026-04-26 17:00 | 29.18159 | -81.06186 | 41 ft | 13 kts | 332° |
| 2026-04-26 17:00 | 29.18245 | -81.06231 | 41 ft | 14 kts | 345° |
| 2026-04-26 17:01 | 29.18341 | -81.06219 | 41 ft | 10 kts | 11° |
| 2026-04-26 17:01 | 29.18386 | -81.06180 | 45 ft | 9 kts | 95° |
| 2026-04-26 17:01 | 29.18379 | -81.06142 | 41 ft | 0 kts | 102° |